Time;durP1;ratioP1;P1;durP2;ratioP2;P2;SDS_P1;SDS_P2;PMS_P1;PMS_P2;Temp;Humidity;BMP_temperature;BMP_pressure;BME280_temperature;BME280_humidity;BME280_pressure;Samples;Min_cycle;Max_cycle;Signal;HPM_P1;HPM_P2
2021/09/18 00:00:27;;;;;;;14.00;8.90;;;;;;;;;;4993937;28;20960;-67
2021/09/18 00:02:53;;;;;;;11.77;8.10;;;;;;;;;;4994783;28;20461;-67
2021/09/18 00:05:19;;;;;;;11.60;8.70;;;;;;;;;;5010534;28;20818;-66
2021/09/18 00:07:45;;;;;;;12.70;8.30;;;;;;;;;;5012692;28;20886;-66
2021/09/18 00:10:11;;;;;;;15.30;8.90;;;;;;;;;;5013234;28;20396;-66
2021/09/18 00:12:37;;;;;;;14.30;7.77;;;;;;;;;;5012112;28;20525;-66
2021/09/18 00:15:03;;;;;;;16.70;9.67;;;;;;;;;;5013266;28;20532;-68
2021/09/18 00:17:30;;;;;;;15.80;10.27;;;;;;;;;;5011386;28;20419;-68
2021/09/18 00:19:56;;;;;;;14.17;10.40;;;;;;;;;;4995475;28;20407;-67
2021/09/18 00:22:22;;;;;;;11.53;8.90;;;;;;;;;;5012581;28;20920;-67
2021/09/18 00:24:48;;;;;;;11.37;9.73;;;;;;;;;;5012918;28;20939;-68
2021/09/18 00:27:14;;;;;;;15.10;9.97;;;;;;;;;;5012276;28;20432;-67
2021/09/18 00:29:40;;;;;;;15.47;9.93;;;;;;;;;;5011975;28;20419;-67
2021/09/18 00:32:06;;;;;;;10.30;7.90;;;;;;;;;;5011904;28;20505;-68
2021/09/18 00:34:33;;;;;;;11.80;8.90;;;;;;;;;;5089413;23;20494;-72
2021/09/18 00:36:59;;;;;;;13.30;7.63;;;;;;;;;;5031661;28;20797;-72
2021/09/18 00:39:25;;;;;;;13.40;7.97;;;;;;;;;;5032593;28;20432;-72
2021/09/18 00:41:51;;;;;;;10.00;7.70;;;;;;;;;;5031896;28;20498;-72
2021/09/18 00:44:18;;;;;;;13.43;9.23;;;;;;;;;;5032538;28;20800;-72
2021/09/18 00:46:47;;;;;;;11.07;8.20;;;;;;;;;;5031522;28;20419;-72
2021/09/18 00:49:13;;;;;;;11.37;8.50;;;;;;;;;;5032471;28;20952;-72
2021/09/18 00:51:40;;;;;;;14.73;10.17;;;;;;;;;;5031607;28;20919;-72
2021/09/18 00:54:06;;;;;;;10.93;7.93;;;;;;;;;;5032308;28;20911;-72
2021/09/18 00:56:33;;;;;;;13.77;8.73;;;;;;;;;;5030440;28;20560;-72
2021/09/18 00:58:59;;;;;;;11.73;7.10;;;;;;;;;;5032666;28;20399;-72
2021/09/18 01:01:25;;;;;;;9.00;7.30;;;;;;;;;;5028746;28;20478;-72
2021/09/18 01:03:51;;;;;;;10.70;7.37;;;;;;;;;;5029526;28;20450;-72
2021/09/18 01:06:18;;;;;;;12.80;7.63;;;;;;;;;;5034946;28;20505;-72
2021/09/18 01:08:48;;;;;;;13.40;8.03;;;;;;;;;;5036006;28;20485;-72
2021/09/18 01:11:14;;;;;;;9.77;7.23;;;;;;;;;;5030629;28;20474;-72
2021/09/18 01:13:40;;;;;;;10.53;7.10;;;;;;;;;;5016010;28;20486;-72
2021/09/18 01:16:06;;;;;;;10.50;7.20;;;;;;;;;;5019255;28;20426;-72
2021/09/18 01:18:32;;;;;;;15.27;7.70;;;;;;;;;;5035744;28;20413;-72
2021/09/18 01:20:59;;;;;;;11.50;7.00;;;;;;;;;;5034534;28;20978;-72
2021/09/18 01:23:25;;;;;;;11.00;7.30;;;;;;;;;;5013201;28;20465;-72
2021/09/18 01:25:51;;;;;;;9.37;7.13;;;;;;;;;;5018707;28;20454;-72
2021/09/18 01:28:17;;;;;;;8.63;6.60;;;;;;;;;;5033247;28;20480;-72
2021/09/18 01:30:43;;;;;;;8.97;7.27;;;;;;;;;;5035405;28;20917;-72
2021/09/18 01:33:09;;;;;;;13.37;8.13;;;;;;;;;;5034173;28;20474;-72
2021/09/18 01:35:36;;;;;;;9.33;7.20;;;;;;;;;;5034548;28;20403;-72
2021/09/18 01:38:03;;;;;;;10.10;6.73;;;;;;;;;;5028646;28;20430;-72
2021/09/18 01:40:31;;;;;;;10.60;7.40;;;;;;;;;;5035213;28;20545;-72
2021/09/18 01:42:57;;;;;;;10.03;7.70;;;;;;;;;;5034198;28;20422;-72
2021/09/18 01:45:25;;;;;;;13.00;7.50;;;;;;;;;;5035462;28;20449;-72
2021/09/18 01:47:52;;;;;;;9.60;7.93;;;;;;;;;;5023227;28;20447;-72
2021/09/18 01:50:25;;;;;;;10.73;8.27;;;;;;;;;;5015850;28;20408;-72
2021/09/18 01:52:51;;;;;;;19.83;10.33;;;;;;;;;;5025458;28;20419;-72
2021/09/18 01:55:18;;;;;;;16.80;9.40;;;;;;;;;;5035320;28;20410;-72
2021/09/18 01:57:45;;;;;;;11.73;7.87;;;;;;;;;;5034145;28;20423;-72
2021/09/18 02:00:13;;;;;;;9.67;7.63;;;;;;;;;;5035275;28;20457;-72
2021/09/18 02:02:39;;;;;;;10.33;7.70;;;;;;;;;;5034298;28;20442;-72
2021/09/18 02:05:05;;;;;;;8.20;6.87;;;;;;;;;;5035034;28;20423;-72
2021/09/18 02:07:31;;;;;;;9.37;7.07;;;;;;;;;;5028600;28;20459;-73
2021/09/18 02:09:57;;;;;;;12.73;7.37;;;;;;;;;;5032800;28;20433;-72
2021/09/18 02:12:23;;;;;;;10.17;7.30;;;;;;;;;;5033151;28;20434;-72
2021/09/18 02:14:49;;;;;;;9.80;6.27;;;;;;;;;;5034590;28;20433;-72
2021/09/18 02:17:16;;;;;;;11.50;6.50;;;;;;;;;;5031975;28;20485;-73
2021/09/18 02:19:42;;;;;;;12.83;9.93;;;;;;;;;;5034851;28;20414;-72
2021/09/18 02:22:08;;;;;;;14.17;8.30;;;;;;;;;;5033910;28;20596;-72
2021/09/18 02:24:34;;;;;;;10.23;7.37;;;;;;;;;;5034647;28;20427;-72
2021/09/18 02:27:00;;;;;;;9.73;7.60;;;;;;;;;;5032404;28;20426;-73
2021/09/18 02:29:26;;;;;;;10.70;6.87;;;;;;;;;;5034411;28;20787;-72
2021/09/18 02:31:52;;;;;;;9.17;6.40;;;;;;;;;;5033345;28;20406;-72
2021/09/18 02:34:18;;;;;;;9.70;6.77;;;;;;;;;;5034201;28;20453;-72
2021/09/18 02:36:44;;;;;;;10.90;6.70;;;;;;;;;;5015559;28;20457;-72
2021/09/18 02:39:10;;;;;;;8.60;6.43;;;;;;;;;;5034103;28;20778;-72
2021/09/18 02:41:36;;;;;;;11.00;7.23;;;;;;;;;;5033324;28;20458;-73
2021/09/18 02:44:02;;;;;;;10.80;7.27;;;;;;;;;;5032981;28;20443;-72
2021/09/18 02:46:29;;;;;;;12.00;7.57;;;;;;;;;;5034136;28;20842;-72
2021/09/18 02:48:55;;;;;;;10.47;7.17;;;;;;;;;;5033149;28;20423;-72
2021/09/18 02:51:21;;;;;;;9.10;6.60;;;;;;;;;;5034218;28;20745;-72
2021/09/18 02:53:47;;;;;;;9.67;6.07;;;;;;;;;;5024246;28;20451;-72
2021/09/18 02:56:13;;;;;;;11.83;6.50;;;;;;;;;;5033815;28;20417;-72
2021/09/18 02:58:40;;;;;;;15.70;7.73;;;;;;;;;;5031803;28;20438;-73
2021/09/18 03:01:06;;;;;;;9.67;5.97;;;;;;;;;;5026458;28;20465;-72
2021/09/18 03:03:32;;;;;;;8.43;6.00;;;;;;;;;;5032548;28;20451;-72
2021/09/18 03:05:58;;;;;;;10.23;6.23;;;;;;;;;;5016044;28;20410;-72
2021/09/18 03:08:24;;;;;;;9.53;5.40;;;;;;;;;;5032685;28;20430;-72
2021/09/18 03:10:51;;;;;;;10.00;7.17;;;;;;;;;;5033750;28;20407;-72
2021/09/18 03:13:17;;;;;;;11.27;8.30;;;;;;;;;;5032626;28;20861;-72
2021/09/18 03:15:43;;;;;;;9.53;6.80;;;;;;;;;;5033556;28;20409;-72
2021/09/18 03:18:09;;;;;;;7.70;5.67;;;;;;;;;;5032404;28;20431;-72
2021/09/18 03:20:36;;;;;;;6.70;5.43;;;;;;;;;;5033396;28;20461;-72
2021/09/18 03:23:02;;;;;;;9.00;5.50;;;;;;;;;;5029368;28;20442;-73
2021/09/18 03:25:28;;;;;;;7.60;5.43;;;;;;;;;;5033295;28;20464;-72
2021/09/18 03:27:54;;;;;;;6.70;5.20;;;;;;;;;;5032213;28;20458;-72
2021/09/18 03:30:20;;;;;;;5.03;4.50;;;;;;;;;;5033546;28;20453;-72
2021/09/18 03:32:46;;;;;;;9.60;6.03;;;;;;;;;;5029444;28;20430;-72
2021/09/18 03:35:12;;;;;;;10.43;5.83;;;;;;;;;;5021801;28;20458;-72
2021/09/18 03:37:38;;;;;;;7.27;4.90;;;;;;;;;;5017029;28;20929;-72
2021/09/18 03:40:05;;;;;;;7.17;5.50;;;;;;;;;;5017325;28;20774;-72
2021/09/18 03:42:31;;;;;;;5.63;4.03;;;;;;;;;;5032659;28;20453;-72
2021/09/18 03:44:57;;;;;;;4.83;4.07;;;;;;;;;;5018172;28;20821;-72
2021/09/18 03:47:24;;;;;;;8.57;4.87;;;;;;;;;;5013144;28;20877;-72
2021/09/18 03:49:50;;;;;;;6.40;5.27;;;;;;;;;;5031028;28;20430;-72
2021/09/18 03:52:16;;;;;;;6.73;4.30;;;;;;;;;;5033073;28;20735;-72
2021/09/18 03:54:42;;;;;;;7.47;5.17;;;;;;;;;;5032028;28;20804;-72
2021/09/18 03:57:08;;;;;;;7.17;4.60;;;;;;;;;;5033011;28;20417;-72
2021/09/18 03:59:34;;;;;;;7.77;5.27;;;;;;;;;;5031106;28;20492;-72
2021/09/18 04:02:00;;;;;;;6.40;4.73;;;;;;;;;;5032830;28;20954;-72
2021/09/18 04:04:26;;;;;;;5.40;3.90;;;;;;;;;;5018788;28;20535;-72
2021/09/18 04:06:52;;;;;;;7.93;5.17;;;;;;;;;;5013237;28;20396;-72
2021/09/18 04:09:19;;;;;;;6.20;4.47;;;;;;;;;;5024810;28;20418;-72
2021/09/18 04:11:45;;;;;;;6.50;4.73;;;;;;;;;;5031897;28;20430;-72
2021/09/18 04:14:11;;;;;;;7.03;4.63;;;;;;;;;;5021617;28;20455;-72
2021/09/18 04:16:37;;;;;;;7.97;4.40;;;;;;;;;;5013205;28;20926;-72
2021/09/18 04:19:03;;;;;;;5.53;4.50;;;;;;;;;;5013146;28;20434;-72
2021/09/18 04:21:29;;;;;;;7.37;4.80;;;;;;;;;;5013340;28;20529;-72
2021/09/18 04:23:55;;;;;;;6.03;4.53;;;;;;;;;;5014325;28;20455;-72
2021/09/18 04:26:21;;;;;;;6.57;4.50;;;;;;;;;;5013143;28;20395;-72
2021/09/18 04:28:47;;;;;;;6.03;4.33;;;;;;;;;;5018490;28;20505;-72
2021/09/18 04:31:13;;;;;;;4.80;3.70;;;;;;;;;;5032719;28;20406;-72
2021/09/18 04:33:40;;;;;;;7.63;4.90;;;;;;;;;;5031448;28;20458;-72
2021/09/18 04:36:06;;;;;;;7.87;4.60;;;;;;;;;;5036509;28;20398;-72
2021/09/18 04:38:32;;;;;;;5.57;3.90;;;;;;;;;;5035435;28;20419;-72
2021/09/18 04:40:58;;;;;;;6.37;4.27;;;;;;;;;;5036472;28;20438;-72
2021/09/18 04:43:24;;;;;;;6.07;4.50;;;;;;;;;;5017665;28;20974;-72
2021/09/18 04:45:51;;;;;;;6.93;4.73;;;;;;;;;;5036495;28;20482;-72
2021/09/18 04:48:17;;;;;;;7.63;4.10;;;;;;;;;;5034920;28;20795;-72
2021/09/18 04:50:43;;;;;;;4.60;3.90;;;;;;;;;;5016642;28;20486;-72
2021/09/18 04:53:09;;;;;;;5.27;4.10;;;;;;;;;;5016387;28;20920;-72
2021/09/18 04:55:35;;;;;;;4.80;3.60;;;;;;;;;;5036310;28;20831;-72
2021/09/18 04:58:01;;;;;;;4.83;4.00;;;;;;;;;;5036229;28;20910;-72
2021/09/18 05:00:28;;;;;;;4.70;3.90;;;;;;;;;;5035087;28;20520;-72
2021/09/18 05:02:54;;;;;;;5.97;4.27;;;;;;;;;;5036448;28;20929;-72
2021/09/18 05:05:20;;;;;;;7.00;4.63;;;;;;;;;;5034124;28;20422;-72
2021/09/18 05:07:46;;;;;;;4.83;3.90;;;;;;;;;;5036165;28;20414;-72
2021/09/18 05:10:12;;;;;;;4.90;3.83;;;;;;;;;;5034947;28;20438;-72
2021/09/18 05:12:38;;;;;;;6.10;4.57;;;;;;;;;;5036220;28;20401;-72
2021/09/18 05:15:06;;;;;;;6.53;4.93;;;;;;;;;;5034013;28;20965;-72
2021/09/18 05:17:32;;;;;;;5.43;4.77;;;;;;;;;;5028796;28;20454;-72
2021/09/18 05:19:58;;;;;;;12.80;5.40;;;;;;;;;;5024765;28;20480;-72
2021/09/18 05:22:24;;;;;;;11.50;4.57;;;;;;;;;;5035946;28;20457;-72
2021/09/18 05:24:51;;;;;;;5.10;4.20;;;;;;;;;;5033341;28;21021;-72
2021/09/18 05:27:17;;;;;;;6.83;4.60;;;;;;;;;;5035535;28;20417;-72
2021/09/18 05:29:44;;;;;;;6.87;4.27;;;;;;;;;;5015282;28;20422;-72
2021/09/18 05:32:10;;;;;;;6.50;4.30;;;;;;;;;;5017925;28;20423;-72
2021/09/18 05:34:36;;;;;;;5.17;4.03;;;;;;;;;;5034436;28;20553;-72
2021/09/18 05:37:02;;;;;;;6.70;4.60;;;;;;;;;;5034783;28;20411;-72
2021/09/18 05:39:28;;;;;;;4.63;3.87;;;;;;;;;;5031953;28;20430;-71
2021/09/18 05:41:54;;;;;;;6.30;4.40;;;;;;;;;;5028802;28;20521;-71
2021/09/18 05:44:21;;;;;;;6.30;4.20;;;;;;;;;;5034340;28;20450;-71
2021/09/18 05:46:47;;;;;;;5.33;4.20;;;;;;;;;;5034283;28;20417;-71
2021/09/18 05:49:13;;;;;;;7.17;4.80;;;;;;;;;;5034219;28;20442;-74
2021/09/18 05:51:39;;;;;;;8.27;5.70;;;;;;;;;;5035168;28;20426;-74
2021/09/18 05:54:05;;;;;;;6.10;4.10;;;;;;;;;;5035111;28;20459;-74
2021/09/18 05:56:31;;;;;;;7.00;5.13;;;;;;;;;;5035168;28;20497;-74
2021/09/18 05:58:57;;;;;;;6.60;4.80;;;;;;;;;;5035044;28;20418;-73
2021/09/18 06:01:23;;;;;;;8.30;4.73;;;;;;;;;;5034379;28;20489;-73
2021/09/18 06:03:49;;;;;;;6.30;4.23;;;;;;;;;;5034998;28;20467;-73
2021/09/18 06:06:15;;;;;;;6.20;4.47;;;;;;;;;;5027756;28;20408;-73
2021/09/18 06:08:41;;;;;;;5.20;4.47;;;;;;;;;;5028135;28;20439;-73
2021/09/18 06:11:09;;;;;;;7.50;5.60;;;;;;;;;;5035198;28;20419;-72
2021/09/18 06:13:35;;;;;;;7.13;5.50;;;;;;;;;;5035605;28;20765;-72
2021/09/18 06:16:01;;;;;;;8.37;5.70;;;;;;;;;;5035150;28;20494;-72
2021/09/18 06:18:27;;;;;;;6.83;5.20;;;;;;;;;;5035107;28;20429;-72
2021/09/18 06:20:54;;;;;;;7.20;5.20;;;;;;;;;;5034998;28;20553;-72
2021/09/18 06:23:20;;;;;;;5.70;4.33;;;;;;;;;;5034526;28;20431;-73
2021/09/18 06:25:46;;;;;;;6.63;5.07;;;;;;;;;;5034782;28;20418;-72
2021/09/18 06:28:12;;;;;;;8.00;5.37;;;;;;;;;;5035047;28;20407;-72
2021/09/18 06:30:38;;;;;;;9.20;6.00;;;;;;;;;;5034871;28;20423;-72
2021/09/18 06:35:32;;;;;;;8.43;5.97;;;;;;;;;;5047801;23;20540;-65
2021/09/18 06:37:58;;;;;;;12.70;7.33;;;;;;;;;;5032797;28;20423;-65
2021/09/18 06:40:25;;;;;;;14.90;8.10;;;;;;;;;;5033291;28;20458;-65
2021/09/18 06:42:51;;;;;;;10.53;7.53;;;;;;;;;;5034362;28;20403;-65
2021/09/18 06:45:17;;;;;;;8.90;6.93;;;;;;;;;;5033194;28;20824;-64
2021/09/18 06:47:43;;;;;;;8.73;7.03;;;;;;;;;;5034524;28;20518;-65
2021/09/18 06:50:10;;;;;;;10.20;6.53;;;;;;;;;;5033236;28;20466;-65
2021/09/18 06:52:36;;;;;;;11.33;7.67;;;;;;;;;;5033587;28;20426;-64
2021/09/18 06:55:02;;;;;;;8.27;6.57;;;;;;;;;;5032089;28;20418;-65
2021/09/18 06:57:28;;;;;;;10.47;7.90;;;;;;;;;;5014176;28;20482;-64
2021/09/18 06:59:54;;;;;;;9.30;6.37;;;;;;;;;;5013980;28;20400;-64
2021/09/18 07:02:20;;;;;;;10.20;7.27;;;;;;;;;;5033976;28;20806;-64
2021/09/18 07:04:46;;;;;;;9.70;7.20;;;;;;;;;;5034127;28;20931;-64
2021/09/18 07:07:12;;;;;;;12.90;6.80;;;;;;;;;;5032971;28;20437;-64
2021/09/18 07:09:38;;;;;;;13.90;6.50;;;;;;;;;;5033821;28;20474;-65
2021/09/18 07:12:05;;;;;;;8.97;6.50;;;;;;;;;;5032570;28;20530;-65
2021/09/18 07:14:31;;;;;;;11.20;7.80;;;;;;;;;;5033909;28;20442;-65
2021/09/18 07:16:57;;;;;;;10.57;7.30;;;;;;;;;;5032801;28;20435;-65
2021/09/18 07:19:23;;;;;;;11.93;7.70;;;;;;;;;;5033619;28;20426;-65
2021/09/18 07:21:49;;;;;;;7.20;6.10;;;;;;;;;;5032571;28;20455;-65
2021/09/18 07:24:15;;;;;;;13.43;7.43;;;;;;;;;;5033586;28;20457;-65
2021/09/18 07:26:41;;;;;;;7.20;6.03;;;;;;;;;;5032385;28;20477;-65
2021/09/18 07:29:07;;;;;;;7.90;6.00;;;;;;;;;;5033550;28;20399;-65
2021/09/18 07:31:33;;;;;;;8.10;6.00;;;;;;;;;;5032303;28;20518;-65
2021/09/18 07:33:59;;;;;;;9.10;5.63;;;;;;;;;;5033192;28;20480;-65
2021/09/18 07:36:25;;;;;;;10.97;6.67;;;;;;;;;;5032697;28;20513;-65
2021/09/18 07:38:51;;;;;;;7.57;6.00;;;;;;;;;;5033712;28;20895;-65
2021/09/18 07:41:17;;;;;;;8.30;6.20;;;;;;;;;;5025638;28;20869;-64
2021/09/18 07:43:44;;;;;;;8.30;6.40;;;;;;;;;;5013588;28;20920;-65
2021/09/18 07:46:10;;;;;;;8.30;5.97;;;;;;;;;;5020789;28;20496;-64
2021/09/18 07:48:36;;;;;;;8.67;6.07;;;;;;;;;;5033467;28;20403;-64
2021/09/18 07:51:02;;;;;;;12.17;6.80;;;;;;;;;;5032412;28;20430;-64
2021/09/18 07:53:28;;;;;;;11.27;7.47;;;;;;;;;;5033214;28;20438;-64
2021/09/18 07:55:54;;;;;;;7.13;5.63;;;;;;;;;;5024507;28;20443;-64
2021/09/18 07:58:20;;;;;;;8.90;5.67;;;;;;;;;;5033284;28;20502;-63
2021/09/18 08:00:47;;;;;;;9.60;6.23;;;;;;;;;;5029486;28;20463;-64
2021/09/18 08:03:14;;;;;;;6.80;5.70;;;;;;;;;;5033000;28;20410;-64
2021/09/18 08:05:41;;;;;;;8.47;6.07;;;;;;;;;;5033022;28;20453;-64
2021/09/18 08:08:07;;;;;;;9.20;5.87;;;;;;;;;;5031881;28;20437;-64
2021/09/18 08:10:34;;;;;;;7.50;6.20;;;;;;;;;;5038985;28;20399;-64
2021/09/18 08:13:00;;;;;;;8.33;5.57;;;;;;;;;;5021264;28;20493;-63
2021/09/18 08:15:26;;;;;;;8.30;6.53;;;;;;;;;;5019529;28;20493;-63
2021/09/18 08:17:52;;;;;;;8.17;5.50;;;;;;;;;;5035747;28;20431;-63
2021/09/18 08:20:18;;;;;;;6.23;5.17;;;;;;;;;;5039788;28;20436;-65
2021/09/18 08:22:45;;;;;;;7.80;5.90;;;;;;;;;;5039010;28;20437;-64
2021/09/18 08:25:11;;;;;;;6.90;5.57;;;;;;;;;;5039607;28;20418;-64
2021/09/18 08:27:38;;;;;;;6.63;5.37;;;;;;;;;;5038817;28;20808;-63
2021/09/18 08:30:05;;;;;;;7.10;5.40;;;;;;;;;;5040251;28;20405;-64
2021/09/18 08:32:31;;;;;;;9.07;6.03;;;;;;;;;;5038617;28;20934;-64
2021/09/18 08:34:57;;;;;;;7.03;5.97;;;;;;;;;;5031156;28;20463;-64
2021/09/18 08:37:23;;;;;;;9.07;6.30;;;;;;;;;;5031734;28;20922;-64
2021/09/18 08:39:50;;;;;;;8.00;5.50;;;;;;;;;;5039568;28;20494;-64
2021/09/18 08:42:16;;;;;;;7.20;5.87;;;;;;;;;;5038714;28;20508;-64
2021/09/18 08:44:43;;;;;;;6.90;5.33;;;;;;;;;;5039435;28;20425;-64
2021/09/18 08:47:11;;;;;;;5.93;4.57;;;;;;;;;;5037206;28;20521;-65
2021/09/18 08:49:37;;;;;;;8.63;5.07;;;;;;;;;;5039249;28;20407;-65
2021/09/18 08:52:05;;;;;;;7.27;5.20;;;;;;;;;;5030547;28;20920;-65
2021/09/18 08:54:31;;;;;;;6.13;5.23;;;;;;;;;;5019513;28;20423;-65
2021/09/18 08:56:57;;;;;;;7.27;5.00;;;;;;;;;;5026500;28;20431;-65
2021/09/18 08:59:23;;;;;;;6.90;4.50;;;;;;;;;;5038133;28;20470;-65
2021/09/18 09:02:07;;;;;;;7.37;5.57;;;;;;;;;;5032330;28;20951;-65
2021/09/18 09:04:33;;;;;;;7.97;5.00;;;;;;;;;;5019056;28;20431;-65
2021/09/18 09:07:01;;;;;;;7.17;5.70;;;;;;;;;;5026053;28;20458;-65
2021/09/18 09:09:27;;;;;;;7.47;5.50;;;;;;;;;;5036953;28;20426;-65
2021/09/18 09:11:54;;;;;;;6.70;3.87;;;;;;;;;;5024808;28;20422;-66
2021/09/18 09:14:21;;;;;;;5.30;4.37;;;;;;;;;;5039052;28;20500;-65
2021/09/18 09:16:58;;;;;;;6.17;4.70;;;;;;;;;;5033319;28;20430;-65
2021/09/18 09:19:24;;;;;;;6.73;4.43;;;;;;;;;;5019418;28;20415;-65
2021/09/18 09:21:53;;;;;;;6.53;3.80;;;;;;;;;;5021495;28;20837;-65
2021/09/18 09:24:20;;;;;;;5.40;3.47;;;;;;;;;;5036097;28;20427;-65
2021/09/18 09:27:24;;;;;;;4.73;3.53;;;;;;;;;;5034771;28;20620;-65
2021/09/18 09:29:53;;;;;;;8.13;3.93;;;;;;;;;;4955688;28;20421;-65
2021/09/18 09:32:26;;;;;;;6.10;4.67;;;;;;;;;;4954633;28;20841;-65
2021/09/18 09:34:53;;;;;;;4.77;3.73;;;;;;;;;;4998773;28;20464;-65
2021/09/18 09:37:19;;;;;;;6.63;4.03;;;;;;;;;;5034888;28;20443;-65
2021/09/18 09:39:50;;;;;;;6.80;3.80;;;;;;;;;;5035756;28;20418;-65
2021/09/18 09:42:16;;;;;;;5.20;3.90;;;;;;;;;;5032610;28;20450;-66
2021/09/18 09:44:42;;;;;;;5.00;3.80;;;;;;;;;;5035688;28;20439;-65
2021/09/18 09:47:10;;;;;;;6.63;4.40;;;;;;;;;;5034732;28;20919;-65
2021/09/18 09:49:53;;;;;;;4.00;3.27;;;;;;;;;;5035653;28;20411;-65
2021/09/18 09:52:28;;;;;;;4.10;2.60;;;;;;;;;;5027033;28;20423;-65
2021/09/18 09:54:58;;;;;;;4.50;3.13;;;;;;;;;;5015630;28;20435;-64
2021/09/18 09:57:24;;;;;;;6.00;2.83;;;;;;;;;;5023778;28;20431;-65
2021/09/18 09:59:56;;;;;;;4.30;3.00;;;;;;;;;;5035596;28;20497;-65
2021/09/18 10:02:22;;;;;;;4.03;3.40;;;;;;;;;;5034088;28;20454;-65
2021/09/18 10:04:49;;;;;;;6.93;3.17;;;;;;;;;;5035121;28;20434;-65
2021/09/18 10:07:15;;;;;;;4.30;3.50;;;;;;;;;;5033104;28;20423;-67
2021/09/18 10:09:41;;;;;;;3.80;2.73;;;;;;;;;;5034954;28;20403;-65
2021/09/18 10:12:07;;;;;;;4.80;2.60;;;;;;;;;;5032953;28;20439;-65
2021/09/18 10:14:35;;;;;;;4.80;2.70;;;;;;;;;;5033940;28;20447;-65
2021/09/18 10:17:01;;;;;;;4.90;2.93;;;;;;;;;;5034259;28;20422;-65
2021/09/18 10:20:12;;;;;;;5.40;3.70;;;;;;;;;;5034734;28;20812;-65
2021/09/18 10:25:06;;;;;;;4.33;2.90;;;;;;;;;;5034817;28;20792;-64
2021/09/18 10:27:32;;;;;;;3.83;3.10;;;;;;;;;;5033685;28;20787;-63
2021/09/18 10:29:58;;;;;;;5.07;3.00;;;;;;;;;;5034640;28;20887;-63
2021/09/18 10:32:25;;;;;;;3.10;2.70;;;;;;;;;;5031547;28;20460;-64
2021/09/18 10:35:10;;;;;;;2.70;2.20;;;;;;;;;;5014732;28;20438;-65
2021/09/18 10:37:38;;;;;;;4.10;3.20;;;;;;;;;;5031886;28;20545;-64
2021/09/18 10:40:09;;;;;;;3.60;2.93;;;;;;;;;;5034635;28;20406;-64
2021/09/18 10:42:38;;;;;;;5.20;3.50;;;;;;;;;;5030865;28;20587;-64
2021/09/18 10:45:05;;;;;;;3.47;2.80;;;;;;;;;;5014321;28;20432;-65
2021/09/18 10:47:37;;;;;;;3.70;2.37;;;;;;;;;;5015649;28;20430;-64
2021/09/18 10:50:26;;;;;;;3.40;2.53;;;;;;;;;;5033517;28;20431;-64
2021/09/18 10:53:04;;;;;;;3.40;2.43;;;;;;;;;;5033130;28;20539;-63
2021/09/18 10:55:31;;;;;;;3.57;2.50;;;;;;;;;;5033962;28;20427;-64
2021/09/18 10:57:57;;;;;;;2.90;2.23;;;;;;;;;;5027859;28;20423;-64
2021/09/18 11:00:37;;;;;;;4.23;2.27;;;;;;;;;;5014385;28;20407;-65
2021/09/18 11:03:03;;;;;;;3.10;2.10;;;;;;;;;;5026623;28;21059;-65
2021/09/18 11:05:38;;;;;;;2.40;1.87;;;;;;;;;;5033630;28;20426;-65
2021/09/18 11:08:14;;;;;;;3.17;1.87;;;;;;;;;;5033010;28;20422;-65
2021/09/18 11:10:46;;;;;;;3.57;2.43;;;;;;;;;;5033874;28;20406;-65
2021/09/18 11:13:12;;;;;;;3.23;1.80;;;;;;;;;;5031092;28;20437;-64
2021/09/18 11:15:48;;;;;;;3.10;1.90;;;;;;;;;;5033703;28;20501;-65
2021/09/18 11:18:34;;;;;;;2.70;2.00;;;;;;;;;;5032804;28;21019;-64
2021/09/18 11:21:16;;;;;;;3.30;2.40;;;;;;;;;;5016296;28;20449;-65
2021/09/18 11:23:42;;;;;;;3.00;2.07;;;;;;;;;;5032476;28;20450;-64
2021/09/18 11:26:27;;;;;;;2.87;1.80;;;;;;;;;;5033732;28;20406;-64
2021/09/18 11:28:53;;;;;;;2.83;1.63;;;;;;;;;;5031580;28;20498;-65
2021/09/18 11:31:19;;;;;;;2.97;2.00;;;;;;;;;;5033400;28;21012;-65
2021/09/18 11:33:49;;;;;;;3.53;2.00;;;;;;;;;;5032491;28;20477;-65
2021/09/18 11:36:17;;;;;;;4.57;2.40;;;;;;;;;;5033338;28;20415;-64
2021/09/18 11:38:44;;;;;;;3.43;2.13;;;;;;;;;;5032509;28;20453;-64
2021/09/18 11:41:11;;;;;;;3.20;2.20;;;;;;;;;;5033245;28;20440;-65
2021/09/18 11:43:38;;;;;;;2.80;2.00;;;;;;;;;;5027265;28;20497;-65
2021/09/18 11:46:04;;;;;;;3.20;2.20;;;;;;;;;;5013137;28;20411;-64
2021/09/18 11:48:31;;;;;;;2.70;1.90;;;;;;;;;;5016462;28;20506;-65
2021/09/18 11:50:58;;;;;;;3.10;1.80;;;;;;;;;;5033285;28;20418;-64
2021/09/18 11:53:24;;;;;;;2.93;2.23;;;;;;;;;;5032126;28;20431;-64
2021/09/18 11:55:51;;;;;;;3.70;1.87;;;;;;;;;;5033230;28;20739;-64
2021/09/18 11:58:18;;;;;;;4.20;3.00;;;;;;;;;;5031344;28;20517;-64
2021/09/18 12:00:49;;;;;;;3.00;2.37;;;;;;;;;;5032199;28;20461;-64
2021/09/18 12:03:35;;;;;;;4.60;2.47;;;;;;;;;;5032224;28;20399;-64
2021/09/18 12:06:03;;;;;;;4.50;2.50;;;;;;;;;;5028660;28;20770;-64
2021/09/18 12:08:30;;;;;;;2.37;1.67;;;;;;;;;;5031529;28;20489;-64
2021/09/18 12:11:04;;;;;;;4.10;2.40;;;;;;;;;;5033098;28;20457;-64
2021/09/18 12:13:30;;;;;;;3.27;2.20;;;;;;;;;;5031704;28;20461;-64
2021/09/18 12:16:02;;;;;;;2.90;2.20;;;;;;;;;;5032823;28;20402;-64
2021/09/18 12:18:30;;;;;;;4.20;1.80;;;;;;;;;;5032195;28;20466;-65
2021/09/18 12:21:04;;;;;;;2.97;2.07;;;;;;;;;;5032564;28;20442;-65
2021/09/18 12:23:31;;;;;;;3.03;2.10;;;;;;;;;;5031560;28;20426;-65
2021/09/18 12:25:59;;;;;;;2.20;1.63;;;;;;;;;;5032602;28;20925;-64
2021/09/18 12:28:25;;;;;;;3.47;1.90;;;;;;;;;;5032032;28;20757;-65
2021/09/18 12:30:52;;;;;;;2.63;1.97;;;;;;;;;;5032783;28;20486;-65
2021/09/18 12:33:19;;;;;;;3.80;2.07;;;;;;;;;;5031617;28;20512;-64
2021/09/18 12:35:48;;;;;;;3.63;2.37;;;;;;;;;;5032230;28;20520;-64
2021/09/18 12:38:16;;;;;;;2.73;1.83;;;;;;;;;;5032672;28;20918;-64
2021/09/18 12:40:49;;;;;;;2.63;1.83;;;;;;;;;;5032389;28;20449;-65
2021/09/18 12:43:24;;;;;;;3.20;2.33;;;;;;;;;;5033085;28;20736;-64
2021/09/18 12:45:52;;;;;;;3.13;2.07;;;;;;;;;;5013124;28;20407;-65
2021/09/18 12:48:19;;;;;;;3.67;2.50;;;;;;;;;;5013399;28;20575;-65
2021/09/18 12:51:05;;;;;;;2.10;1.60;;;;;;;;;;5032030;28;20514;-65
2021/09/18 12:53:36;;;;;;;3.00;1.80;;;;;;;;;;5031352;28;20465;-66
2021/09/18 12:56:13;;;;;;;3.73;2.10;;;;;;;;;;5034478;28;20941;-66
2021/09/18 12:58:40;;;;;;;2.80;1.60;;;;;;;;;;5034711;28;20405;-65
2021/09/18 13:01:07;;;;;;;2.37;1.93;;;;;;;;;;5018151;28;20455;-64
2021/09/18 13:03:34;;;;;;;2.80;2.03;;;;;;;;;;5015029;28;20436;-65
2021/09/18 13:06:01;;;;;;;3.77;2.20;;;;;;;;;;5036050;28;20422;-65
2021/09/18 13:08:40;;;;;;;2.20;1.63;;;;;;;;;;5030813;28;21014;-66
2021/09/18 13:11:14;;;;;;;2.73;2.13;;;;;;;;;;5036613;28;20749;-64
2021/09/18 13:13:40;;;;;;;4.00;2.70;;;;;;;;;;5035114;28;20422;-66
2021/09/18 13:16:06;;;;;;;4.00;2.27;;;;;;;;;;5035996;28;20949;-66
2021/09/18 13:18:32;;;;;;;3.10;2.20;;;;;;;;;;5035983;28;20422;-65
2021/09/18 13:20:59;;;;;;;3.20;1.90;;;;;;;;;;5035466;28;20481;-66
2021/09/18 13:23:25;;;;;;;3.60;2.50;;;;;;;;;;5035945;28;20826;-65
2021/09/18 13:25:51;;;;;;;3.13;2.13;;;;;;;;;;5016794;28;20474;-65
2021/09/18 13:28:17;;;;;;;3.80;2.20;;;;;;;;;;5016062;28;20903;-65
2021/09/18 13:30:43;;;;;;;3.53;1.90;;;;;;;;;;5032744;28;20485;-65
2021/09/18 13:33:09;;;;;;;2.60;1.90;;;;;;;;;;5035449;28;20411;-65
2021/09/18 13:35:35;;;;;;;4.10;2.00;;;;;;;;;;5034799;28;20487;-64
2021/09/18 13:38:01;;;;;;;4.90;2.13;;;;;;;;;;5035687;28;20395;-64
2021/09/18 13:40:27;;;;;;;3.07;1.80;;;;;;;;;;5021184;28;20521;-64
2021/09/18 13:42:53;;;;;;;2.80;2.27;;;;;;;;;;5015530;28;20459;-64
2021/09/18 13:45:19;;;;;;;3.03;1.70;;;;;;;;;;5028273;28;20497;-65
2021/09/18 13:47:45;;;;;;;4.13;2.00;;;;;;;;;;5035467;28;20394;-66
2021/09/18 13:50:11;;;;;;;2.50;1.60;;;;;;;;;;5034535;28;20489;-66
2021/09/18 13:52:37;;;;;;;3.90;1.87;;;;;;;;;;5035228;28;20825;-65
2021/09/18 13:55:03;;;;;;;3.63;2.57;;;;;;;;;;5034051;28;20450;-65
2021/09/18 13:57:29;;;;;;;3.00;2.03;;;;;;;;;;5034895;28;20407;-65
2021/09/18 13:59:55;;;;;;;3.87;1.60;;;;;;;;;;5034047;28;20506;-65
2021/09/18 14:02:21;;;;;;;2.50;1.70;;;;;;;;;;5035206;28;20481;-65
2021/09/18 14:04:47;;;;;;;3.60;2.10;;;;;;;;;;5034239;28;20446;-65
2021/09/18 14:07:14;;;;;;;2.53;1.80;;;;;;;;;;5034176;28;21032;-65
2021/09/18 14:09:40;;;;;;;2.47;1.50;;;;;;;;;;5034276;28;20423;-65
2021/09/18 14:12:06;;;;;;;2.50;1.80;;;;;;;;;;5034700;28;20407;-65
2021/09/18 14:14:32;;;;;;;1.90;1.43;;;;;;;;;;5031791;28;21040;-65
2021/09/18 14:16:58;;;;;;;3.03;1.87;;;;;;;;;;5034948;28;20762;-65
2021/09/18 14:19:25;;;;;;;3.20;1.60;;;;;;;;;;5030369;28;20456;-65
2021/09/18 14:21:51;;;;;;;2.33;1.70;;;;;;;;;;5032320;28;20446;-65
2021/09/18 14:24:17;;;;;;;8.13;1.83;;;;;;;;;;5034443;28;20959;-65
2021/09/18 14:26:43;;;;;;;2.67;1.67;;;;;;;;;;5034062;28;20781;-65
2021/09/18 14:29:09;;;;;;;3.10;1.53;;;;;;;;;;5034469;28;20943;-65
2021/09/18 14:31:36;;;;;;;2.10;1.40;;;;;;;;;;5018736;28;20763;-65
2021/09/18 14:34:02;;;;;;;2.43;1.50;;;;;;;;;;4998286;28;20915;-66
2021/09/18 14:36:31;;;;;;;4.17;1.70;;;;;;;;;;5032188;28;20454;-63
2021/09/18 14:38:57;;;;;;;2.60;1.60;;;;;;;;;;5037855;28;20965;-64
2021/09/18 14:41:23;;;;;;;2.77;1.90;;;;;;;;;;5023911;28;20474;-63
2021/09/18 14:43:49;;;;;;;3.20;1.67;;;;;;;;;;5019401;28;20477;-63
2021/09/18 14:46:15;;;;;;;3.27;1.90;;;;;;;;;;5029939;28;20430;-64